sensor_id;sensor_type;location;lat;lon;timestamp;P1;durP1;ratioP1;P2;durP2;ratioP2
77733;SDS011;66902;41.720;44.796;2023-03-02T00:00:57;7.10;;;6.00;;
77733;SDS011;66902;41.720;44.796;2023-03-02T00:03:31;7.40;;;5.40;;
77733;SDS011;66902;41.720;44.796;2023-03-02T00:06:02;9.30;;;6.40;;
77733;SDS011;66902;41.720;44.796;2023-03-02T00:08:33;8.00;;;5.60;;
77733;SDS011;66902;41.720;44.796;2023-03-02T00:11:04;6.20;;;5.10;;
77733;SDS011;66902;41.720;44.796;2023-03-02T00:13:35;9.90;;;5.50;;
77733;SDS011;66902;41.720;44.796;2023-03-02T00:16:07;8.00;;;5.30;;
77733;SDS011;66902;41.720;44.796;2023-03-02T00:18:38;6.80;;;4.80;;
77733;SDS011;66902;41.720;44.796;2023-03-02T00:21:09;7.00;;;4.70;;
77733;SDS011;66902;41.720;44.796;2023-03-02T00:23:39;9.00;;;5.10;;
77733;SDS011;66902;41.720;44.796;2023-03-02T00:26:10;8.50;;;5.30;;
77733;SDS011;66902;41.720;44.796;2023-03-02T00:28:44;4.50;;;3.90;;
77733;SDS011;66902;41.720;44.796;2023-03-02T00:31:15;8.90;;;6.00;;
77733;SDS011;66902;41.720;44.796;2023-03-02T00:33:45;6.70;;;4.70;;
77733;SDS011;66902;41.720;44.796;2023-03-02T00:36:16;8.40;;;5.90;;
77733;SDS011;66902;41.720;44.796;2023-03-02T00:38:49;6.60;;;5.60;;
77733;SDS011;66902;41.720;44.796;2023-03-02T00:41:20;7.10;;;4.50;;
77733;SDS011;66902;41.720;44.796;2023-03-02T00:43:50;5.80;;;5.00;;
77733;SDS011;66902;41.720;44.796;2023-03-02T00:46:21;6.40;;;4.50;;
77733;SDS011;66902;41.720;44.796;2023-03-02T00:48:52;11.60;;;5.30;;
77733;SDS011;66902;41.720;44.796;2023-03-02T00:51:23;11.40;;;5.40;;
77733;SDS011;66902;41.720;44.796;2023-03-02T00:53:53;8.10;;;6.20;;
77733;SDS011;66902;41.720;44.796;2023-03-02T00:56:24;13.30;;;5.70;;
77733;SDS011;66902;41.720;44.796;2023-03-02T00:58:55;9.20;;;4.90;;
77733;SDS011;66902;41.720;44.796;2023-03-02T01:01:25;9.70;;;5.60;;
77733;SDS011;66902;41.720;44.796;2023-03-02T01:03:56;7.70;;;5.60;;
77733;SDS011;66902;41.720;44.796;2023-03-02T01:06:26;8.10;;;6.10;;
77733;SDS011;66902;41.720;44.796;2023-03-02T01:08:57;6.80;;;5.20;;
77733;SDS011;66902;41.720;44.796;2023-03-02T01:11:28;5.10;;;4.60;;
77733;SDS011;66902;41.720;44.796;2023-03-02T01:13:59;7.90;;;5.30;;
77733;SDS011;66902;41.720;44.796;2023-03-02T01:16:29;8.00;;;5.80;;
77733;SDS011;66902;41.720;44.796;2023-03-02T01:19:01;7.60;;;5.60;;
77733;SDS011;66902;41.720;44.796;2023-03-02T01:21:31;8.10;;;6.30;;
77733;SDS011;66902;41.720;44.796;2023-03-02T01:24:03;5.40;;;4.70;;
77733;SDS011;66902;41.720;44.796;2023-03-02T01:26:35;7.40;;;5.90;;
77733;SDS011;66902;41.720;44.796;2023-03-02T01:29:06;8.30;;;5.80;;
77733;SDS011;66902;41.720;44.796;2023-03-02T01:31:36;8.90;;;6.40;;
77733;SDS011;66902;41.720;44.796;2023-03-02T01:34:10;8.80;;;6.30;;
77733;SDS011;66902;41.720;44.796;2023-03-02T01:36:40;11.20;;;5.90;;
77733;SDS011;66902;41.720;44.796;2023-03-02T01:39:12;7.10;;;5.70;;
77733;SDS011;66902;41.720;44.796;2023-03-02T01:41:43;5.50;;;5.00;;
77733;SDS011;66902;41.720;44.796;2023-03-02T01:44:33;7.70;;;5.60;;
77733;SDS011;66902;41.720;44.796;2023-03-02T01:47:13;9.60;;;6.70;;
77733;SDS011;66902;41.720;44.796;2023-03-02T01:49:47;6.30;;;5.70;;
77733;SDS011;66902;41.720;44.796;2023-03-02T01:52:19;6.40;;;4.90;;
77733;SDS011;66902;41.720;44.796;2023-03-02T01:54:51;7.30;;;6.20;;
77733;SDS011;66902;41.720;44.796;2023-03-02T01:57:24;6.60;;;5.80;;
77733;SDS011;66902;41.720;44.796;2023-03-02T01:59:58;18.30;;;6.40;;
77733;SDS011;66902;41.720;44.796;2023-03-02T02:02:33;7.70;;;5.30;;
77733;SDS011;66902;41.720;44.796;2023-03-02T02:05:09;7.50;;;6.30;;
77733;SDS011;66902;41.720;44.796;2023-03-02T02:07:41;7.70;;;5.40;;
77733;SDS011;66902;41.720;44.796;2023-03-02T02:10:12;7.90;;;6.30;;
77733;SDS011;66902;41.720;44.796;2023-03-02T02:12:42;11.90;;;6.90;;
77733;SDS011;66902;41.720;44.796;2023-03-02T02:15:13;11.40;;;6.00;;
77733;SDS011;66902;41.720;44.796;2023-03-02T02:17:44;7.90;;;6.90;;
77733;SDS011;66902;41.720;44.796;2023-03-02T02:20:18;9.50;;;6.40;;
77733;SDS011;66902;41.720;44.796;2023-03-02T02:22:55;9.40;;;7.10;;
77733;SDS011;66902;41.720;44.796;2023-03-02T02:25:42;10.80;;;7.50;;
77733;SDS011;66902;41.720;44.796;2023-03-02T02:28:15;7.90;;;7.00;;
77733;SDS011;66902;41.720;44.796;2023-03-02T02:30:49;8.60;;;6.20;;
77733;SDS011;66902;41.720;44.796;2023-03-02T02:33:35;9.30;;;6.50;;
77733;SDS011;66902;41.720;44.796;2023-03-02T02:36:07;10.00;;;6.30;;
77733;SDS011;66902;41.720;44.796;2023-03-02T02:38:41;10.20;;;6.60;;
77733;SDS011;66902;41.720;44.796;2023-03-02T02:41:16;7.90;;;5.90;;
77733;SDS011;66902;41.720;44.796;2023-03-02T02:43:49;9.70;;;7.20;;
77733;SDS011;66902;41.720;44.796;2023-03-02T02:46:20;7.20;;;6.20;;
77733;SDS011;66902;41.720;44.796;2023-03-02T02:48:52;6.90;;;5.60;;
77733;SDS011;66902;41.720;44.796;2023-03-02T02:51:24;10.50;;;7.40;;
77733;SDS011;66902;41.720;44.796;2023-03-02T02:53:56;9.30;;;6.60;;
77733;SDS011;66902;41.720;44.796;2023-03-02T02:56:28;8.00;;;7.20;;
77733;SDS011;66902;41.720;44.796;2023-03-02T02:59:01;11.80;;;7.90;;
77733;SDS011;66902;41.720;44.796;2023-03-02T03:01:34;8.20;;;5.80;;
77733;SDS011;66902;41.720;44.796;2023-03-02T03:04:05;10.10;;;5.70;;
77733;SDS011;66902;41.720;44.796;2023-03-02T03:06:38;7.90;;;6.80;;
77733;SDS011;66902;41.720;44.796;2023-03-02T03:09:18;10.60;;;6.30;;
77733;SDS011;66902;41.720;44.796;2023-03-02T03:11:51;13.20;;;6.50;;
77733;SDS011;66902;41.720;44.796;2023-03-02T03:14:24;10.20;;;7.00;;
77733;SDS011;66902;41.720;44.796;2023-03-02T03:16:56;9.50;;;7.40;;
77733;SDS011;66902;41.720;44.796;2023-03-02T03:19:27;9.50;;;6.90;;
77733;SDS011;66902;41.720;44.796;2023-03-02T03:22:00;11.60;;;7.50;;
77733;SDS011;66902;41.720;44.796;2023-03-02T03:24:31;12.00;;;8.70;;
77733;SDS011;66902;41.720;44.796;2023-03-02T03:27:02;7.40;;;6.30;;
77733;SDS011;66902;41.720;44.796;2023-03-02T03:29:34;11.00;;;6.60;;
77733;SDS011;66902;41.720;44.796;2023-03-02T03:32:05;10.60;;;7.30;;
77733;SDS011;66902;41.720;44.796;2023-03-02T03:34:36;7.70;;;6.80;;
77733;SDS011;66902;41.720;44.796;2023-03-02T03:37:07;12.60;;;6.20;;
77733;SDS011;66902;41.720;44.796;2023-03-02T03:39:38;14.00;;;7.60;;
77733;SDS011;66902;41.720;44.796;2023-03-02T03:42:09;10.50;;;7.40;;
77733;SDS011;66902;41.720;44.796;2023-03-02T03:44:40;12.90;;;9.20;;
77733;SDS011;66902;41.720;44.796;2023-03-02T03:47:11;9.10;;;7.10;;
77733;SDS011;66902;41.720;44.796;2023-03-02T03:49:41;15.00;;;7.20;;
77733;SDS011;66902;41.720;44.796;2023-03-02T03:52:12;13.40;;;7.70;;
77733;SDS011;66902;41.720;44.796;2023-03-02T03:54:42;12.60;;;9.60;;
77733;SDS011;66902;41.720;44.796;2023-03-02T03:57:13;14.60;;;7.80;;
77733;SDS011;66902;41.720;44.796;2023-03-02T03:59:45;9.40;;;7.70;;
77733;SDS011;66902;41.720;44.796;2023-03-02T04:02:15;13.70;;;7.70;;
77733;SDS011;66902;41.720;44.796;2023-03-02T04:04:48;15.90;;;8.80;;
77733;SDS011;66902;41.720;44.796;2023-03-02T04:07:19;9.90;;;8.00;;
77733;SDS011;66902;41.720;44.796;2023-03-02T04:09:50;11.70;;;8.70;;
77733;SDS011;66902;41.720;44.796;2023-03-02T04:12:30;9.00;;;7.60;;
77733;SDS011;66902;41.720;44.796;2023-03-02T04:15:02;9.70;;;7.10;;
77733;SDS011;66902;41.720;44.796;2023-03-02T04:17:35;10.50;;;9.10;;
77733;SDS011;66902;41.720;44.796;2023-03-02T04:20:07;12.00;;;8.70;;
77733;SDS011;66902;41.720;44.796;2023-03-02T04:25:14;11.80;;;8.50;;
77733;SDS011;66902;41.720;44.796;2023-03-02T04:27:47;8.90;;;7.50;;
77733;SDS011;66902;41.720;44.796;2023-03-02T04:30:19;15.30;;;7.10;;
77733;SDS011;66902;41.720;44.796;2023-03-02T04:32:51;15.00;;;8.30;;
77733;SDS011;66902;41.720;44.796;2023-03-02T04:35:22;10.00;;;8.90;;
77733;SDS011;66902;41.720;44.796;2023-03-02T04:37:53;12.10;;;8.00;;
77733;SDS011;66902;41.720;44.796;2023-03-02T04:40:24;16.30;;;8.40;;
77733;SDS011;66902;41.720;44.796;2023-03-02T04:42:54;13.30;;;8.60;;
77733;SDS011;66902;41.720;44.796;2023-03-02T04:45:25;11.80;;;7.50;;
77733;SDS011;66902;41.720;44.796;2023-03-02T04:47:55;11.20;;;8.10;;
77733;SDS011;66902;41.720;44.796;2023-03-02T04:50:26;10.00;;;9.00;;
77733;SDS011;66902;41.720;44.796;2023-03-02T04:52:57;9.00;;;7.90;;
77733;SDS011;66902;41.720;44.796;2023-03-02T04:55:28;12.90;;;8.30;;
77733;SDS011;66902;41.720;44.796;2023-03-02T04:57:58;14.70;;;8.40;;
77733;SDS011;66902;41.720;44.796;2023-03-02T05:00:29;11.60;;;9.40;;
77733;SDS011;66902;41.720;44.796;2023-03-02T05:03:01;18.00;;;8.80;;
77733;SDS011;66902;41.720;44.796;2023-03-02T05:05:32;14.20;;;8.30;;
77733;SDS011;66902;41.720;44.796;2023-03-02T05:08:04;12.50;;;7.90;;
77733;SDS011;66902;41.720;44.796;2023-03-02T05:10:34;11.50;;;7.90;;
77733;SDS011;66902;41.720;44.796;2023-03-02T05:13:05;9.20;;;7.10;;
77733;SDS011;66902;41.720;44.796;2023-03-02T05:15:36;15.00;;;9.10;;
77733;SDS011;66902;41.720;44.796;2023-03-02T05:18:07;8.80;;;7.00;;
77733;SDS011;66902;41.720;44.796;2023-03-02T05:20:38;11.60;;;8.00;;
77733;SDS011;66902;41.720;44.796;2023-03-02T05:23:09;17.20;;;8.90;;
77733;SDS011;66902;41.720;44.796;2023-03-02T05:25:44;15.10;;;9.40;;
77733;SDS011;66902;41.720;44.796;2023-03-02T05:28:16;20.80;;;10.70;;
77733;SDS011;66902;41.720;44.796;2023-03-02T05:30:47;10.80;;;8.70;;
77733;SDS011;66902;41.720;44.796;2023-03-02T05:33:18;11.80;;;8.80;;
77733;SDS011;66902;41.720;44.796;2023-03-02T05:35:49;17.50;;;8.80;;
77733;SDS011;66902;41.720;44.796;2023-03-02T05:38:20;20.60;;;10.10;;
77733;SDS011;66902;41.720;44.796;2023-03-02T05:40:51;16.70;;;9.80;;
77733;SDS011;66902;41.720;44.796;2023-03-02T05:43:22;12.30;;;9.60;;
77733;SDS011;66902;41.720;44.796;2023-03-02T05:45:53;14.10;;;9.10;;
77733;SDS011;66902;41.720;44.796;2023-03-02T05:48:27;11.30;;;8.40;;
77733;SDS011;66902;41.720;44.796;2023-03-02T05:50:58;11.70;;;7.60;;
77733;SDS011;66902;41.720;44.796;2023-03-02T05:53:29;14.00;;;9.80;;
77733;SDS011;66902;41.720;44.796;2023-03-02T05:55:59;30.70;;;10.10;;
77733;SDS011;66902;41.720;44.796;2023-03-02T05:58:30;15.40;;;10.00;;
77733;SDS011;66902;41.720;44.796;2023-03-02T06:01:00;17.60;;;9.00;;
77733;SDS011;66902;41.720;44.796;2023-03-02T06:03:35;11.90;;;9.40;;
77733;SDS011;66902;41.720;44.796;2023-03-02T06:06:06;13.40;;;9.20;;
77733;SDS011;66902;41.720;44.796;2023-03-02T06:08:41;16.70;;;8.10;;
77733;SDS011;66902;41.720;44.796;2023-03-02T06:11:12;15.00;;;9.80;;
77733;SDS011;66902;41.720;44.796;2023-03-02T06:13:43;13.00;;;8.40;;
77733;SDS011;66902;41.720;44.796;2023-03-02T06:16:13;8.70;;;6.70;;
77733;SDS011;66902;41.720;44.796;2023-03-02T06:18:44;12.00;;;8.80;;
77733;SDS011;66902;41.720;44.796;2023-03-02T06:21:15;16.70;;;9.20;;
77733;SDS011;66902;41.720;44.796;2023-03-02T06:23:45;16.50;;;9.20;;
77733;SDS011;66902;41.720;44.796;2023-03-02T06:26:16;12.30;;;8.30;;
77733;SDS011;66902;41.720;44.796;2023-03-02T06:28:47;11.10;;;7.10;;
77733;SDS011;66902;41.720;44.796;2023-03-02T06:31:21;16.30;;;7.10;;
77733;SDS011;66902;41.720;44.796;2023-03-02T06:33:51;23.20;;;7.70;;
77733;SDS011;66902;41.720;44.796;2023-03-02T06:36:22;15.20;;;7.40;;
77733;SDS011;66902;41.720;44.796;2023-03-02T06:38:52;10.80;;;7.10;;
77733;SDS011;66902;41.720;44.796;2023-03-02T06:41:23;10.10;;;7.00;;
77733;SDS011;66902;41.720;44.796;2023-03-02T06:43:54;15.20;;;7.20;;
77733;SDS011;66902;41.720;44.796;2023-03-02T06:46:24;7.30;;;6.30;;
77733;SDS011;66902;41.720;44.796;2023-03-02T06:48:55;13.90;;;7.40;;
77733;SDS011;66902;41.720;44.796;2023-03-02T06:51:26;18.00;;;8.10;;
77733;SDS011;66902;41.720;44.796;2023-03-02T06:53:56;13.70;;;7.20;;
77733;SDS011;66902;41.720;44.796;2023-03-02T06:56:27;12.60;;;6.30;;
77733;SDS011;66902;41.720;44.796;2023-03-02T06:58:58;12.20;;;7.20;;
77733;SDS011;66902;41.720;44.796;2023-03-02T07:01:29;14.00;;;8.40;;
77733;SDS011;66902;41.720;44.796;2023-03-02T07:04:03;10.60;;;7.00;;
77733;SDS011;66902;41.720;44.796;2023-03-02T07:06:33;12.30;;;7.20;;
77733;SDS011;66902;41.720;44.796;2023-03-02T07:09:03;10.30;;;6.10;;
77733;SDS011;66902;41.720;44.796;2023-03-02T07:11:34;10.80;;;6.60;;
77733;SDS011;66902;41.720;44.796;2023-03-02T07:14:04;7.00;;;6.30;;
77733;SDS011;66902;41.720;44.796;2023-03-02T07:16:35;10.30;;;7.50;;
77733;SDS011;66902;41.720;44.796;2023-03-02T07:19:07;9.80;;;7.40;;
77733;SDS011;66902;41.720;44.796;2023-03-02T07:21:40;11.30;;;7.40;;
77733;SDS011;66902;41.720;44.796;2023-03-02T07:24:10;12.60;;;6.80;;
77733;SDS011;66902;41.720;44.796;2023-03-02T07:26:41;12.30;;;6.00;;
77733;SDS011;66902;41.720;44.796;2023-03-02T07:29:11;11.40;;;6.10;;
77733;SDS011;66902;41.720;44.796;2023-03-02T07:31:42;19.30;;;7.50;;
77733;SDS011;66902;41.720;44.796;2023-03-02T07:34:12;17.00;;;7.10;;
77733;SDS011;66902;41.720;44.796;2023-03-02T07:36:43;7.20;;;5.70;;
77733;SDS011;66902;41.720;44.796;2023-03-02T07:39:14;16.90;;;7.00;;
77733;SDS011;66902;41.720;44.796;2023-03-02T07:41:44;9.00;;;7.50;;
77733;SDS011;66902;41.720;44.796;2023-03-02T07:44:15;13.70;;;9.10;;
77733;SDS011;66902;41.720;44.796;2023-03-02T07:46:46;11.30;;;7.90;;
77733;SDS011;66902;41.720;44.796;2023-03-02T07:49:16;12.00;;;7.60;;
77733;SDS011;66902;41.720;44.796;2023-03-02T07:51:47;12.70;;;7.20;;
77733;SDS011;66902;41.720;44.796;2023-03-02T07:54:18;9.70;;;6.20;;
77733;SDS011;66902;41.720;44.796;2023-03-02T07:56:48;12.80;;;7.50;;
77733;SDS011;66902;41.720;44.796;2023-03-02T07:59:19;10.20;;;7.40;;
77733;SDS011;66902;41.720;44.796;2023-03-02T08:01:49;10.00;;;7.50;;
77733;SDS011;66902;41.720;44.796;2023-03-02T08:04:20;11.80;;;7.80;;
77733;SDS011;66902;41.720;44.796;2023-03-02T08:06:50;14.10;;;8.10;;
77733;SDS011;66902;41.720;44.796;2023-03-02T08:09:21;9.60;;;7.70;;
77733;SDS011;66902;41.720;44.796;2023-03-02T08:11:52;12.60;;;7.60;;
77733;SDS011;66902;41.720;44.796;2023-03-02T08:14:23;10.00;;;8.90;;
77733;SDS011;66902;41.720;44.796;2023-03-02T08:16:53;15.20;;;8.40;;
77733;SDS011;66902;41.720;44.796;2023-03-02T08:19:24;14.40;;;8.50;;
77733;SDS011;66902;41.720;44.796;2023-03-02T08:21:55;12.10;;;8.60;;
77733;SDS011;66902;41.720;44.796;2023-03-02T08:24:25;16.40;;;8.70;;
77733;SDS011;66902;41.720;44.796;2023-03-02T08:26:59;11.50;;;7.80;;
77733;SDS011;66902;41.720;44.796;2023-03-02T08:29:30;9.40;;;7.50;;
77733;SDS011;66902;41.720;44.796;2023-03-02T08:32:02;12.30;;;7.80;;
77733;SDS011;66902;41.720;44.796;2023-03-02T08:34:36;11.50;;;8.10;;
77733;SDS011;66902;41.720;44.796;2023-03-02T08:37:06;11.00;;;8.70;;
77733;SDS011;66902;41.720;44.796;2023-03-02T08:39:37;11.90;;;8.10;;
77733;SDS011;66902;41.720;44.796;2023-03-02T08:42:07;9.10;;;7.50;;
77733;SDS011;66902;41.720;44.796;2023-03-02T08:44:40;11.90;;;7.90;;
77733;SDS011;66902;41.720;44.796;2023-03-02T08:47:11;9.50;;;8.10;;
77733;SDS011;66902;41.720;44.796;2023-03-02T08:49:42;12.00;;;9.30;;
77733;SDS011;66902;41.720;44.796;2023-03-02T08:52:15;10.50;;;9.40;;
77733;SDS011;66902;41.720;44.796;2023-03-02T08:54:49;15.30;;;9.10;;
77733;SDS011;66902;41.720;44.796;2023-03-02T08:57:21;19.40;;;8.20;;
77733;SDS011;66902;41.720;44.796;2023-03-02T08:59:52;12.40;;;9.70;;
77733;SDS011;66902;41.720;44.796;2023-03-02T09:02:26;14.40;;;9.30;;
77733;SDS011;66902;41.720;44.796;2023-03-02T09:04:56;16.60;;;10.10;;
77733;SDS011;66902;41.720;44.796;2023-03-02T09:07:27;9.80;;;8.80;;
77733;SDS011;66902;41.720;44.796;2023-03-02T09:09:58;12.20;;;10.30;;
77733;SDS011;66902;41.720;44.796;2023-03-02T09:12:28;14.50;;;10.90;;
77733;SDS011;66902;41.720;44.796;2023-03-02T09:14:59;20.70;;;11.20;;
77733;SDS011;66902;41.720;44.796;2023-03-02T09:17:30;20.10;;;11.70;;
77733;SDS011;66902;41.720;44.796;2023-03-02T09:20:00;11.30;;;8.60;;
77733;SDS011;66902;41.720;44.796;2023-03-02T09:22:31;11.30;;;9.70;;
77733;SDS011;66902;41.720;44.796;2023-03-02T09:25:03;15.00;;;10.50;;
77733;SDS011;66902;41.720;44.796;2023-03-02T09:27:34;12.70;;;8.40;;
77733;SDS011;66902;41.720;44.796;2023-03-02T09:30:06;10.30;;;9.30;;
77733;SDS011;66902;41.720;44.796;2023-03-02T09:32:38;12.20;;;8.50;;
77733;SDS011;66902;41.720;44.796;2023-03-02T09:35:08;16.90;;;10.80;;
77733;SDS011;66902;41.720;44.796;2023-03-02T09:37:39;13.10;;;9.30;;
77733;SDS011;66902;41.720;44.796;2023-03-02T09:40:14;11.60;;;8.10;;
77733;SDS011;66902;41.720;44.796;2023-03-02T09:42:59;12.90;;;8.10;;
77733;SDS011;66902;41.720;44.796;2023-03-02T09:48:33;14.40;;;7.50;;
77733;SDS011;66902;41.720;44.796;2023-03-02T09:51:13;17.90;;;7.80;;
77733;SDS011;66902;41.720;44.796;2023-03-02T09:53:52;10.60;;;7.10;;
77733;SDS011;66902;41.720;44.796;2023-03-02T09:56:27;9.20;;;7.20;;
77733;SDS011;66902;41.720;44.796;2023-03-02T09:59:00;8.80;;;6.80;;
77733;SDS011;66902;41.720;44.796;2023-03-02T10:01:38;11.10;;;7.40;;
77733;SDS011;66902;41.720;44.796;2023-03-02T10:04:17;11.90;;;6.30;;
77733;SDS011;66902;41.720;44.796;2023-03-02T10:06:55;10.80;;;7.60;;
77733;SDS011;66902;41.720;44.796;2023-03-02T10:09:30;7.00;;;6.30;;
77733;SDS011;66902;41.720;44.796;2023-03-02T10:14:55;11.90;;;10.70;;
77733;SDS011;66902;41.720;44.796;2023-03-02T10:17:34;15.20;;;8.60;;
77733;SDS011;66902;41.720;44.796;2023-03-02T10:20:16;11.30;;;7.50;;
77733;SDS011;66902;41.720;44.796;2023-03-02T10:22:50;13.30;;;7.30;;
77733;SDS011;66902;41.720;44.796;2023-03-02T10:25:26;12.70;;;8.50;;
77733;SDS011;66902;41.720;44.796;2023-03-02T10:28:04;10.80;;;7.50;;
77733;SDS011;66902;41.720;44.796;2023-03-02T10:30:41;12.30;;;8.60;;
77733;SDS011;66902;41.720;44.796;2023-03-02T10:33:14;9.20;;;6.90;;
77733;SDS011;66902;41.720;44.796;2023-03-02T10:35:46;9.50;;;7.00;;
77733;SDS011;66902;41.720;44.796;2023-03-02T10:38:18;8.40;;;6.50;;
77733;SDS011;66902;41.720;44.796;2023-03-02T10:40:53;7.00;;;6.30;;
77733;SDS011;66902;41.720;44.796;2023-03-02T10:43:28;8.00;;;6.80;;
77733;SDS011;66902;41.720;44.796;2023-03-02T10:46:02;6.40;;;5.40;;
77733;SDS011;66902;41.720;44.796;2023-03-02T10:48:46;8.10;;;6.20;;
77733;SDS011;66902;41.720;44.796;2023-03-02T10:51:24;7.70;;;6.20;;
77733;SDS011;66902;41.720;44.796;2023-03-02T10:54:03;9.30;;;7.30;;
77733;SDS011;66902;41.720;44.796;2023-03-02T10:56:46;9.80;;;7.20;;
77733;SDS011;66902;41.720;44.796;2023-03-02T11:02:16;9.20;;;7.60;;
77733;SDS011;66902;41.720;44.796;2023-03-02T11:04:53;12.10;;;8.30;;
77733;SDS011;66902;41.720;44.796;2023-03-02T11:07:26;10.30;;;7.90;;
77733;SDS011;66902;41.720;44.796;2023-03-02T11:10:01;9.70;;;6.70;;
77733;SDS011;66902;41.720;44.796;2023-03-02T11:12:35;7.80;;;6.60;;
77733;SDS011;66902;41.720;44.796;2023-03-02T11:17:59;6.30;;;3.20;;
77733;SDS011;66902;41.720;44.796;2023-03-02T11:20:33;3.90;;;3.40;;
77733;SDS011;66902;41.720;44.796;2023-03-02T11:23:09;3.00;;;2.40;;
77733;SDS011;66902;41.720;44.796;2023-03-02T11:25:45;3.70;;;2.70;;
77733;SDS011;66902;41.720;44.796;2023-03-02T11:28:21;3.30;;;2.60;;
77733;SDS011;66902;41.720;44.796;2023-03-02T11:30:58;2.80;;;2.10;;
77733;SDS011;66902;41.720;44.796;2023-03-02T11:33:33;3.60;;;2.50;;
77733;SDS011;66902;41.720;44.796;2023-03-02T11:36:09;2.10;;;1.60;;
77733;SDS011;66902;41.720;44.796;2023-03-02T11:38:45;2.00;;;1.30;;
77733;SDS011;66902;41.720;44.796;2023-03-02T11:41:22;4.00;;;2.00;;
77733;SDS011;66902;41.720;44.796;2023-03-02T11:43:57;3.20;;;2.00;;
77733;SDS011;66902;41.720;44.796;2023-03-02T11:46:36;3.40;;;1.70;;
77733;SDS011;66902;41.720;44.796;2023-03-02T11:49:10;2.80;;;2.30;;
77733;SDS011;66902;41.720;44.796;2023-03-02T11:51:49;5.20;;;2.60;;
77733;SDS011;66902;41.720;44.796;2023-03-02T11:54:30;4.50;;;2.70;;
77733;SDS011;66902;41.720;44.796;2023-03-02T11:57:04;2.40;;;1.70;;
77733;SDS011;66902;41.720;44.796;2023-03-02T11:59:37;3.20;;;2.10;;
77733;SDS011;66902;41.720;44.796;2023-03-02T12:02:08;3.90;;;2.80;;
77733;SDS011;66902;41.720;44.796;2023-03-02T12:04:42;2.90;;;2.10;;
77733;SDS011;66902;41.720;44.796;2023-03-02T12:07:17;3.10;;;2.10;;
77733;SDS011;66902;41.720;44.796;2023-03-02T12:09:57;2.70;;;1.90;;
77733;SDS011;66902;41.720;44.796;2023-03-02T12:12:35;3.70;;;1.80;;
77733;SDS011;66902;41.720;44.796;2023-03-02T12:18:12;3.20;;;2.10;;
77733;SDS011;66902;41.720;44.796;2023-03-02T12:21:01;8.30;;;2.90;;
77733;SDS011;66902;41.720;44.796;2023-03-02T12:23:33;4.60;;;3.00;;
77733;SDS011;66902;41.720;44.796;2023-03-02T12:26:07;3.10;;;2.60;;
77733;SDS011;66902;41.720;44.796;2023-03-02T12:29:01;3.10;;;1.60;;
77733;SDS011;66902;41.720;44.796;2023-03-02T12:31:44;7.90;;;2.50;;
77733;SDS011;66902;41.720;44.796;2023-03-02T12:37:12;3.80;;;1.70;;
77733;SDS011;66902;41.720;44.796;2023-03-02T12:42:37;2.70;;;1.60;;
77733;SDS011;66902;41.720;44.796;2023-03-02T12:45:30;2.90;;;1.60;;
77733;SDS011;66902;41.720;44.796;2023-03-02T12:48:14;1.80;;;1.30;;
77733;SDS011;66902;41.720;44.796;2023-03-02T12:50:53;4.60;;;1.60;;
77733;SDS011;66902;41.720;44.796;2023-03-02T12:53:24;3.20;;;2.20;;
77733;SDS011;66902;41.720;44.796;2023-03-02T12:55:55;1.40;;;1.10;;
77733;SDS011;66902;41.720;44.796;2023-03-02T12:58:28;1.70;;;1.30;;
77733;SDS011;66902;41.720;44.796;2023-03-02T13:03:53;3.50;;;1.50;;
77733;SDS011;66902;41.720;44.796;2023-03-02T13:06:28;2.80;;;1.70;;
77733;SDS011;66902;41.720;44.796;2023-03-02T13:09:00;2.70;;;1.70;;
77733;SDS011;66902;41.720;44.796;2023-03-02T13:11:33;3.30;;;1.60;;
77733;SDS011;66902;41.720;44.796;2023-03-02T13:14:15;1.40;;;1.10;;
77733;SDS011;66902;41.720;44.796;2023-03-02T13:16:58;2.10;;;1.20;;
77733;SDS011;66902;41.720;44.796;2023-03-02T13:19:35;2.90;;;0.90;;
77733;SDS011;66902;41.720;44.796;2023-03-02T13:22:08;1.30;;;1.00;;
77733;SDS011;66902;41.720;44.796;2023-03-02T13:24:44;1.70;;;0.70;;
77733;SDS011;66902;41.720;44.796;2023-03-02T13:27:18;1.70;;;1.10;;
77733;SDS011;66902;41.720;44.796;2023-03-02T13:29:49;2.20;;;1.00;;
77733;SDS011;66902;41.720;44.796;2023-03-02T13:32:23;2.80;;;1.00;;
77733;SDS011;66902;41.720;44.796;2023-03-02T13:34:56;1.10;;;0.90;;
77733;SDS011;66902;41.720;44.796;2023-03-02T13:37:34;1.80;;;1.00;;
77733;SDS011;66902;41.720;44.796;2023-03-02T13:43:26;2.60;;;1.10;;
77733;SDS011;66902;41.720;44.796;2023-03-02T13:46:02;1.40;;;1.20;;
77733;SDS011;66902;41.720;44.796;2023-03-02T13:48:34;2.00;;;0.90;;
77733;SDS011;66902;41.720;44.796;2023-03-02T13:51:13;4.60;;;0.90;;
77733;SDS011;66902;41.720;44.796;2023-03-02T13:53:54;2.80;;;1.50;;
77733;SDS011;66902;41.720;44.796;2023-03-02T13:56:27;4.50;;;1.30;;
77733;SDS011;66902;41.720;44.796;2023-03-02T13:58:58;2.30;;;1.20;;
77733;SDS011;66902;41.720;44.796;2023-03-02T14:01:29;3.10;;;1.50;;
77733;SDS011;66902;41.720;44.796;2023-03-02T14:04:00;2.20;;;0.90;;
77733;SDS011;66902;41.720;44.796;2023-03-02T14:06:31;1.50;;;0.80;;
77733;SDS011;66902;41.720;44.796;2023-03-02T14:09:02;2.30;;;1.10;;
77733;SDS011;66902;41.720;44.796;2023-03-02T14:11:33;3.70;;;1.00;;
77733;SDS011;66902;41.720;44.796;2023-03-02T14:14:06;3.30;;;0.40;;
77733;SDS011;66902;41.720;44.796;2023-03-02T14:16:40;5.90;;;1.30;;
77733;SDS011;66902;41.720;44.796;2023-03-02T14:19:10;1.80;;;1.10;;
77733;SDS011;66902;41.720;44.796;2023-03-02T14:21:43;1.80;;;0.90;;
77733;SDS011;66902;41.720;44.796;2023-03-02T14:24:14;1.30;;;1.00;;
77733;SDS011;66902;41.720;44.796;2023-03-02T14:26:45;1.50;;;1.00;;
77733;SDS011;66902;41.720;44.796;2023-03-02T14:29:18;1.90;;;0.90;;
77733;SDS011;66902;41.720;44.796;2023-03-02T14:31:51;1.60;;;0.80;;
77733;SDS011;66902;41.720;44.796;2023-03-02T14:34:26;3.40;;;0.70;;
77733;SDS011;66902;41.720;44.796;2023-03-02T14:37:01;2.50;;;0.70;;
77733;SDS011;66902;41.720;44.796;2023-03-02T14:39:36;4.00;;;0.90;;
77733;SDS011;66902;41.720;44.796;2023-03-02T14:42:10;1.40;;;0.70;;
77733;SDS011;66902;41.720;44.796;2023-03-02T14:44:42;1.60;;;0.80;;
77733;SDS011;66902;41.720;44.796;2023-03-02T14:47:15;3.00;;;1.00;;
77733;SDS011;66902;41.720;44.796;2023-03-02T14:49:46;3.20;;;1.10;;
77733;SDS011;66902;41.720;44.796;2023-03-02T14:52:18;1.90;;;0.90;;
77733;SDS011;66902;41.720;44.796;2023-03-02T14:54:53;2.60;;;1.10;;
77733;SDS011;66902;41.720;44.796;2023-03-02T14:57:27;2.90;;;0.90;;
77733;SDS011;66902;41.720;44.796;2023-03-02T15:00:00;2.10;;;0.90;;
77733;SDS011;66902;41.720;44.796;2023-03-02T15:02:31;2.70;;;1.10;;
77733;SDS011;66902;41.720;44.796;2023-03-02T15:05:01;2.00;;;1.40;;
77733;SDS011;66902;41.720;44.796;2023-03-02T15:07:33;2.10;;;0.90;;
77733;SDS011;66902;41.720;44.796;2023-03-02T15:10:04;1.70;;;1.00;;
77733;SDS011;66902;41.720;44.796;2023-03-02T15:12:36;1.50;;;1.00;;
77733;SDS011;66902;41.720;44.796;2023-03-02T15:15:08;4.00;;;0.70;;
77733;SDS011;66902;41.720;44.796;2023-03-02T15:17:40;3.40;;;1.30;;
77733;SDS011;66902;41.720;44.796;2023-03-02T15:20:12;2.30;;;1.60;;
77733;SDS011;66902;41.720;44.796;2023-03-02T15:22:43;2.90;;;0.60;;
77733;SDS011;66902;41.720;44.796;2023-03-02T15:25:14;0.70;;;0.60;;
77733;SDS011;66902;41.720;44.796;2023-03-02T15:27:45;2.10;;;1.30;;
77733;SDS011;66902;41.720;44.796;2023-03-02T15:30:16;3.60;;;0.80;;